Nikishka, Alaska
Current Conditions -  °F | °C
As of 9:53 AM on Monday 20 Oct 2014 (Local Time) from PAEN Reporting Station
Overcast Overcast  
Wind Chill: 32°   Ceiling: 11000
Heat Index: 32°   Visibility: 10mi
Dew Point: 32°   Wind: 0mph
Humidity: 100%   Direction: NA
Pressure: 28.98"   Gusts: NA
Location:  60.7377°N, 151.324°W
Report Text: PAEN 201753Z 00000KT 10SM FEW048 SCT085 OVC110 00/00 A2898 RMK AO2 SNE06 SLP814 P0000 60003 T00000000 10006 21006 53002
Loading
Personal Weather Stations






























Interactive Weather Map New forecast layout! Learn more

10-Day Weather Forecast

Advertisements
Track Severe Weather on mobile